sensor_id;sensor_type;location;lat;lon;timestamp;P1;durP1;ratioP1;P2;durP2;ratioP2
7683;SDS011;3884;48.616;12.872;2024-02-21T00:00:02;8.40;;;3.87;;
7683;SDS011;3884;48.616;12.872;2024-02-21T00:02:30;9.57;;;3.53;;
7683;SDS011;3884;48.616;12.872;2024-02-21T00:04:57;11.47;;;4.10;;
7683;SDS011;3884;48.616;12.872;2024-02-21T00:07:25;11.27;;;4.10;;
7683;SDS011;3884;48.616;12.872;2024-02-21T00:09:52;10.23;;;3.90;;
7683;SDS011;3884;48.616;12.872;2024-02-21T00:12:19;7.80;;;3.73;;
7683;SDS011;3884;48.616;12.872;2024-02-21T00:14:45;9.40;;;3.87;;
7683;SDS011;3884;48.616;12.872;2024-02-21T00:17:12;7.90;;;4.37;;
7683;SDS011;3884;48.616;12.872;2024-02-21T00:19:39;10.27;;;3.70;;
7683;SDS011;3884;48.616;12.872;2024-02-21T00:22:06;6.80;;;3.50;;
7683;SDS011;3884;48.616;12.872;2024-02-21T00:24:35;8.53;;;3.80;;
7683;SDS011;3884;48.616;12.872;2024-02-21T00:27:01;11.03;;;3.90;;
7683;SDS011;3884;48.616;12.872;2024-02-21T00:29:28;5.53;;;3.70;;
7683;SDS011;3884;48.616;12.872;2024-02-21T00:31:55;8.03;;;3.80;;
7683;SDS011;3884;48.616;12.872;2024-02-21T00:34:22;8.27;;;3.57;;
7683;SDS011;3884;48.616;12.872;2024-02-21T00:36:49;7.97;;;3.80;;
7683;SDS011;3884;48.616;12.872;2024-02-21T00:39:16;6.73;;;3.50;;
7683;SDS011;3884;48.616;12.872;2024-02-21T00:41:44;6.87;;;3.50;;
7683;SDS011;3884;48.616;12.872;2024-02-21T00:44:11;7.47;;;4.00;;
7683;SDS011;3884;48.616;12.872;2024-02-21T00:46:38;8.23;;;3.67;;
7683;SDS011;3884;48.616;12.872;2024-02-21T00:49:05;11.90;;;3.50;;
7683;SDS011;3884;48.616;12.872;2024-02-21T00:51:32;9.70;;;3.97;;
7683;SDS011;3884;48.616;12.872;2024-02-21T00:53:59;9.40;;;4.17;;
7683;SDS011;3884;48.616;12.872;2024-02-21T00:56:26;11.20;;;4.00;;
7683;SDS011;3884;48.616;12.872;2024-02-21T00:58:56;8.40;;;3.60;;
7683;SDS011;3884;48.616;12.872;2024-02-21T01:01:23;8.50;;;3.67;;
7683;SDS011;3884;48.616;12.872;2024-02-21T01:03:51;10.67;;;4.10;;
7683;SDS011;3884;48.616;12.872;2024-02-21T01:06:18;8.87;;;3.80;;
7683;SDS011;3884;48.616;12.872;2024-02-21T01:08:45;10.60;;;3.60;;
7683;SDS011;3884;48.616;12.872;2024-02-21T01:11:13;8.57;;;3.73;;
7683;SDS011;3884;48.616;12.872;2024-02-21T01:13:40;9.17;;;3.50;;
7683;SDS011;3884;48.616;12.872;2024-02-21T01:16:08;10.03;;;3.90;;
7683;SDS011;3884;48.616;12.872;2024-02-21T01:18:36;9.57;;;3.70;;
7683;SDS011;3884;48.616;12.872;2024-02-21T01:21:04;7.97;;;3.83;;
7683;SDS011;3884;48.616;12.872;2024-02-21T01:23:32;7.00;;;3.63;;
7683;SDS011;3884;48.616;12.872;2024-02-21T01:25:59;7.40;;;3.67;;
7683;SDS011;3884;48.616;12.872;2024-02-21T01:28:26;8.33;;;3.87;;
7683;SDS011;3884;48.616;12.872;2024-02-21T01:30:52;8.70;;;3.80;;
7683;SDS011;3884;48.616;12.872;2024-02-21T01:33:22;5.10;;;3.80;;
7683;SDS011;3884;48.616;12.872;2024-02-21T01:35:49;9.60;;;3.83;;
7683;SDS011;3884;48.616;12.872;2024-02-21T01:38:16;10.47;;;3.63;;
7683;SDS011;3884;48.616;12.872;2024-02-21T01:40:43;7.97;;;3.83;;
7683;SDS011;3884;48.616;12.872;2024-02-21T01:43:19;6.97;;;4.27;;
7683;SDS011;3884;48.616;12.872;2024-02-21T01:45:49;9.13;;;3.93;;
7683;SDS011;3884;48.616;12.872;2024-02-21T01:48:17;8.83;;;3.73;;
7683;SDS011;3884;48.616;12.872;2024-02-21T01:50:45;10.80;;;3.50;;
7683;SDS011;3884;48.616;12.872;2024-02-21T01:53:13;5.73;;;3.63;;
7683;SDS011;3884;48.616;12.872;2024-02-21T01:55:44;7.10;;;3.80;;
7683;SDS011;3884;48.616;12.872;2024-02-21T01:58:11;8.73;;;3.53;;
7683;SDS011;3884;48.616;12.872;2024-02-21T02:00:39;6.70;;;4.23;;
7683;SDS011;3884;48.616;12.872;2024-02-21T02:03:09;6.50;;;3.50;;
7683;SDS011;3884;48.616;12.872;2024-02-21T02:05:42;7.57;;;3.53;;
7683;SDS011;3884;48.616;12.872;2024-02-21T02:08:11;7.83;;;3.90;;
7683;SDS011;3884;48.616;12.872;2024-02-21T02:10:38;8.83;;;3.57;;
7683;SDS011;3884;48.616;12.872;2024-02-21T02:13:06;6.10;;;3.57;;
7683;SDS011;3884;48.616;12.872;2024-02-21T02:15:39;8.90;;;3.70;;
7683;SDS011;3884;48.616;12.872;2024-02-21T02:18:07;6.63;;;3.60;;
7683;SDS011;3884;48.616;12.872;2024-02-21T02:20:34;10.37;;;4.07;;
7683;SDS011;3884;48.616;12.872;2024-02-21T02:23:02;10.53;;;4.40;;
7683;SDS011;3884;48.616;12.872;2024-02-21T02:25:35;9.87;;;3.70;;
7683;SDS011;3884;48.616;12.872;2024-02-21T02:28:02;11.03;;;4.00;;
7683;SDS011;3884;48.616;12.872;2024-02-21T02:30:31;9.93;;;3.30;;
7683;SDS011;3884;48.616;12.872;2024-02-21T02:32:59;7.80;;;3.60;;
7683;SDS011;3884;48.616;12.872;2024-02-21T02:35:26;6.93;;;3.87;;
7683;SDS011;3884;48.616;12.872;2024-02-21T02:37:53;7.77;;;3.40;;
7683;SDS011;3884;48.616;12.872;2024-02-21T02:40:20;7.00;;;3.40;;
7683;SDS011;3884;48.616;12.872;2024-02-21T02:42:48;11.17;;;3.53;;
7683;SDS011;3884;48.616;12.872;2024-02-21T02:45:15;11.77;;;3.77;;
7683;SDS011;3884;48.616;12.872;2024-02-21T02:47:42;8.10;;;3.60;;
7683;SDS011;3884;48.616;12.872;2024-02-21T02:50:11;7.40;;;3.40;;
7683;SDS011;3884;48.616;12.872;2024-02-21T02:52:38;6.87;;;3.60;;
7683;SDS011;3884;48.616;12.872;2024-02-21T02:55:05;5.67;;;3.43;;
7683;SDS011;3884;48.616;12.872;2024-02-21T02:57:33;6.50;;;3.90;;
7683;SDS011;3884;48.616;12.872;2024-02-21T03:00:01;7.70;;;3.57;;
7683;SDS011;3884;48.616;12.872;2024-02-21T03:02:29;10.03;;;3.83;;
7683;SDS011;3884;48.616;12.872;2024-02-21T03:04:56;10.07;;;3.63;;
7683;SDS011;3884;48.616;12.872;2024-02-21T03:07:24;9.43;;;3.70;;
7683;SDS011;3884;48.616;12.872;2024-02-21T03:09:51;8.70;;;3.43;;
7683;SDS011;3884;48.616;12.872;2024-02-21T03:12:19;6.53;;;3.40;;
7683;SDS011;3884;48.616;12.872;2024-02-21T03:14:52;8.47;;;3.67;;
7683;SDS011;3884;48.616;12.872;2024-02-21T03:17:20;8.70;;;3.93;;
7683;SDS011;3884;48.616;12.872;2024-02-21T03:19:48;8.57;;;3.53;;
7683;SDS011;3884;48.616;12.872;2024-02-21T03:22:15;9.53;;;3.43;;
7683;SDS011;3884;48.616;12.872;2024-02-21T03:24:42;5.97;;;3.60;;
7683;SDS011;3884;48.616;12.872;2024-02-21T03:27:09;10.20;;;3.60;;
7683;SDS011;3884;48.616;12.872;2024-02-21T03:29:35;8.33;;;3.33;;
7683;SDS011;3884;48.616;12.872;2024-02-21T03:32:02;10.33;;;3.80;;
7683;SDS011;3884;48.616;12.872;2024-02-21T03:34:31;7.23;;;3.33;;
7683;SDS011;3884;48.616;12.872;2024-02-21T03:36:58;4.43;;;3.00;;
7683;SDS011;3884;48.616;12.872;2024-02-21T03:39:25;6.23;;;3.30;;
7683;SDS011;3884;48.616;12.872;2024-02-21T03:41:52;6.30;;;3.10;;
7683;SDS011;3884;48.616;12.872;2024-02-21T03:44:19;5.67;;;3.20;;
7683;SDS011;3884;48.616;12.872;2024-02-21T03:46:46;5.97;;;3.30;;
7683;SDS011;3884;48.616;12.872;2024-02-21T03:49:12;7.40;;;3.40;;
7683;SDS011;3884;48.616;12.872;2024-02-21T03:51:41;6.73;;;3.53;;
7683;SDS011;3884;48.616;12.872;2024-02-21T03:54:08;7.73;;;3.47;;
7683;SDS011;3884;48.616;12.872;2024-02-21T03:56:36;6.40;;;3.33;;
7683;SDS011;3884;48.616;12.872;2024-02-21T03:59:04;7.90;;;3.63;;
7683;SDS011;3884;48.616;12.872;2024-02-21T04:01:31;5.33;;;3.20;;
7683;SDS011;3884;48.616;12.872;2024-02-21T04:03:58;6.40;;;3.30;;
7683;SDS011;3884;48.616;12.872;2024-02-21T04:06:25;9.53;;;3.50;;
7683;SDS011;3884;48.616;12.872;2024-02-21T04:08:54;8.60;;;3.60;;
7683;SDS011;3884;48.616;12.872;2024-02-21T04:11:20;8.50;;;3.60;;
7683;SDS011;3884;48.616;12.872;2024-02-21T04:13:47;6.10;;;3.20;;
7683;SDS011;3884;48.616;12.872;2024-02-21T04:16:15;7.20;;;3.30;;
7683;SDS011;3884;48.616;12.872;2024-02-21T04:18:42;5.63;;;3.30;;
7683;SDS011;3884;48.616;12.872;2024-02-21T04:21:09;8.67;;;3.57;;
7683;SDS011;3884;48.616;12.872;2024-02-21T04:23:36;7.83;;;3.47;;
7683;SDS011;3884;48.616;12.872;2024-02-21T04:26:05;7.40;;;3.20;;
7683;SDS011;3884;48.616;12.872;2024-02-21T04:28:32;8.50;;;3.30;;
7683;SDS011;3884;48.616;12.872;2024-02-21T04:30:58;7.80;;;3.30;;
7683;SDS011;3884;48.616;12.872;2024-02-21T04:33:25;8.13;;;3.23;;
7683;SDS011;3884;48.616;12.872;2024-02-21T04:35:52;7.30;;;3.10;;
7683;SDS011;3884;48.616;12.872;2024-02-21T04:38:20;7.63;;;3.43;;
7683;SDS011;3884;48.616;12.872;2024-02-21T04:40:47;4.43;;;2.93;;
7683;SDS011;3884;48.616;12.872;2024-02-21T04:43:15;7.03;;;3.20;;
7683;SDS011;3884;48.616;12.872;2024-02-21T04:45:42;4.40;;;2.57;;
7683;SDS011;3884;48.616;12.872;2024-02-21T04:48:09;6.20;;;3.00;;
7683;SDS011;3884;48.616;12.872;2024-02-21T04:50:36;6.53;;;2.70;;
7683;SDS011;3884;48.616;12.872;2024-02-21T04:53:03;7.57;;;3.20;;
7683;SDS011;3884;48.616;12.872;2024-02-21T04:55:30;8.60;;;3.20;;
7683;SDS011;3884;48.616;12.872;2024-02-21T04:57:58;5.27;;;2.97;;
7683;SDS011;3884;48.616;12.872;2024-02-21T05:00:28;8.63;;;3.30;;
7683;SDS011;3884;48.616;12.872;2024-02-21T05:02:55;4.60;;;3.07;;
7683;SDS011;3884;48.616;12.872;2024-02-21T05:05:22;5.00;;;3.23;;
7683;SDS011;3884;48.616;12.872;2024-02-21T05:07:49;6.50;;;3.20;;
7683;SDS011;3884;48.616;12.872;2024-02-21T05:10:16;7.87;;;3.20;;
7683;SDS011;3884;48.616;12.872;2024-02-21T05:12:44;4.87;;;2.97;;
7683;SDS011;3884;48.616;12.872;2024-02-21T05:15:11;6.47;;;3.10;;
7683;SDS011;3884;48.616;12.872;2024-02-21T05:17:39;6.40;;;3.37;;
7683;SDS011;3884;48.616;12.872;2024-02-21T05:20:08;7.67;;;3.33;;
7683;SDS011;3884;48.616;12.872;2024-02-21T05:22:35;16.23;;;4.23;;
7683;SDS011;3884;48.616;12.872;2024-02-21T05:25:02;7.07;;;3.00;;
7683;SDS011;3884;48.616;12.872;2024-02-21T05:27:29;8.87;;;3.53;;
7683;SDS011;3884;48.616;12.872;2024-02-21T05:29:56;10.23;;;3.17;;
7683;SDS011;3884;48.616;12.872;2024-02-21T05:32:23;6.57;;;3.30;;
7683;SDS011;3884;48.616;12.872;2024-02-21T05:34:51;7.97;;;3.27;;
7683;SDS011;3884;48.616;12.872;2024-02-21T05:37:18;6.87;;;3.20;;
7683;SDS011;3884;48.616;12.872;2024-02-21T05:39:45;6.10;;;2.63;;
7683;SDS011;3884;48.616;12.872;2024-02-21T05:42:12;6.63;;;3.03;;
7683;SDS011;3884;48.616;12.872;2024-02-21T05:44:39;7.00;;;3.50;;
7683;SDS011;3884;48.616;12.872;2024-02-21T05:47:06;9.13;;;3.83;;
7683;SDS011;3884;48.616;12.872;2024-02-21T05:49:35;5.40;;;3.33;;
7683;SDS011;3884;48.616;12.872;2024-02-21T05:52:03;8.27;;;3.40;;
7683;SDS011;3884;48.616;12.872;2024-02-21T05:54:31;6.33;;;3.10;;
7683;SDS011;3884;48.616;12.872;2024-02-21T05:56:58;6.80;;;3.23;;
7683;SDS011;3884;48.616;12.872;2024-02-21T05:59:25;10.07;;;3.30;;
7683;SDS011;3884;48.616;12.872;2024-02-21T06:01:55;8.57;;;4.63;;
7683;SDS011;3884;48.616;12.872;2024-02-21T06:04:23;9.73;;;3.97;;
7683;SDS011;3884;48.616;12.872;2024-02-21T06:06:50;6.37;;;3.10;;
7683;SDS011;3884;48.616;12.872;2024-02-21T06:09:21;5.50;;;3.00;;
7683;SDS011;3884;48.616;12.872;2024-02-21T06:11:48;7.40;;;3.13;;
7683;SDS011;3884;48.616;12.872;2024-02-21T06:14:15;4.93;;;3.10;;
7683;SDS011;3884;48.616;12.872;2024-02-21T06:16:43;4.67;;;2.87;;
7683;SDS011;3884;48.616;12.872;2024-02-21T06:19:09;5.70;;;3.07;;
7683;SDS011;3884;48.616;12.872;2024-02-21T06:21:36;7.43;;;3.33;;
7683;SDS011;3884;48.616;12.872;2024-02-21T06:24:03;8.97;;;3.80;;
7683;SDS011;3884;48.616;12.872;2024-02-21T06:26:32;5.97;;;3.20;;
7683;SDS011;3884;48.616;12.872;2024-02-21T06:28:59;6.60;;;3.50;;
7683;SDS011;3884;48.616;12.872;2024-02-21T06:31:27;8.70;;;2.90;;
7683;SDS011;3884;48.616;12.872;2024-02-21T06:33:53;8.00;;;3.37;;
7683;SDS011;3884;48.616;12.872;2024-02-21T06:36:20;3.20;;;2.83;;
7683;SDS011;3884;48.616;12.872;2024-02-21T06:38:47;5.87;;;2.90;;
7683;SDS011;3884;48.616;12.872;2024-02-21T06:41:15;8.97;;;3.33;;
7683;SDS011;3884;48.616;12.872;2024-02-21T06:43:44;5.53;;;3.10;;
7683;SDS011;3884;48.616;12.872;2024-02-21T06:46:12;5.80;;;3.37;;
7683;SDS011;3884;48.616;12.872;2024-02-21T06:48:48;5.30;;;3.13;;
7683;SDS011;3884;48.616;12.872;2024-02-21T06:51:15;7.00;;;3.20;;
7683;SDS011;3884;48.616;12.872;2024-02-21T06:53:42;5.13;;;3.20;;
7683;SDS011;3884;48.616;12.872;2024-02-21T06:56:10;6.40;;;3.37;;
7683;SDS011;3884;48.616;12.872;2024-02-21T06:58:36;8.57;;;3.63;;
7683;SDS011;3884;48.616;12.872;2024-02-21T07:01:05;6.03;;;3.87;;
7683;SDS011;3884;48.616;12.872;2024-02-21T07:03:32;6.67;;;4.00;;
7683;SDS011;3884;48.616;12.872;2024-02-21T07:06:04;7.30;;;3.00;;
7683;SDS011;3884;48.616;12.872;2024-02-21T07:08:32;5.63;;;3.47;;
7683;SDS011;3884;48.616;12.872;2024-02-21T07:10:59;4.33;;;3.20;;
7683;SDS011;3884;48.616;12.872;2024-02-21T07:13:26;7.03;;;4.77;;
7683;SDS011;3884;48.616;12.872;2024-02-21T07:15:52;5.77;;;3.30;;
7683;SDS011;3884;48.616;12.872;2024-02-21T07:18:21;4.97;;;3.43;;
7683;SDS011;3884;48.616;12.872;2024-02-21T07:20:49;9.47;;;5.93;;
7683;SDS011;3884;48.616;12.872;2024-02-21T07:23:16;9.10;;;7.13;;
7683;SDS011;3884;48.616;12.872;2024-02-21T07:25:43;9.07;;;6.00;;
7683;SDS011;3884;48.616;12.872;2024-02-21T07:28:10;8.83;;;5.10;;
7683;SDS011;3884;48.616;12.872;2024-02-21T07:30:38;6.07;;;4.40;;
7683;SDS011;3884;48.616;12.872;2024-02-21T07:33:05;8.80;;;3.90;;
7683;SDS011;3884;48.616;12.872;2024-02-21T07:35:34;6.87;;;3.20;;
7683;SDS011;3884;48.616;12.872;2024-02-21T07:38:03;5.17;;;3.20;;
7683;SDS011;3884;48.616;12.872;2024-02-21T07:40:30;6.50;;;3.17;;
7683;SDS011;3884;48.616;12.872;2024-02-21T07:42:57;5.13;;;3.20;;
7683;SDS011;3884;48.616;12.872;2024-02-21T07:45:23;5.53;;;3.57;;
7683;SDS011;3884;48.616;12.872;2024-02-21T07:47:51;4.57;;;3.10;;
7683;SDS011;3884;48.616;12.872;2024-02-21T07:50:18;5.17;;;3.17;;
7683;SDS011;3884;48.616;12.872;2024-02-21T07:52:46;4.43;;;2.83;;
7683;SDS011;3884;48.616;12.872;2024-02-21T07:55:13;4.93;;;2.63;;
7683;SDS011;3884;48.616;12.872;2024-02-21T07:57:40;5.07;;;3.07;;
7683;SDS011;3884;48.616;12.872;2024-02-21T08:00:07;5.17;;;3.10;;
7683;SDS011;3884;48.616;12.872;2024-02-21T08:02:38;5.37;;;3.23;;
7683;SDS011;3884;48.616;12.872;2024-02-21T08:05:07;4.17;;;2.80;;
7683;SDS011;3884;48.616;12.872;2024-02-21T08:07:37;5.10;;;2.50;;
7683;SDS011;3884;48.616;12.872;2024-02-21T08:10:07;5.30;;;2.57;;
7683;SDS011;3884;48.616;12.872;2024-02-21T08:12:34;7.57;;;2.77;;
7683;SDS011;3884;48.616;12.872;2024-02-21T08:15:02;8.33;;;3.00;;
7683;SDS011;3884;48.616;12.872;2024-02-21T08:17:29;6.20;;;2.60;;
7683;SDS011;3884;48.616;12.872;2024-02-21T08:19:56;5.10;;;3.23;;
7683;SDS011;3884;48.616;12.872;2024-02-21T08:22:23;7.93;;;5.27;;
7683;SDS011;3884;48.616;12.872;2024-02-21T08:24:50;6.80;;;4.17;;
7683;SDS011;3884;48.616;12.872;2024-02-21T08:27:19;3.60;;;2.90;;
7683;SDS011;3884;48.616;12.872;2024-02-21T08:29:46;4.47;;;2.53;;
7683;SDS011;3884;48.616;12.872;2024-02-21T08:32:12;4.03;;;2.40;;
7683;SDS011;3884;48.616;12.872;2024-02-21T08:34:39;5.30;;;2.70;;
7683;SDS011;3884;48.616;12.872;2024-02-21T08:37:06;4.23;;;2.67;;
7683;SDS011;3884;48.616;12.872;2024-02-21T08:39:33;6.33;;;2.67;;
7683;SDS011;3884;48.616;12.872;2024-02-21T08:42:00;5.73;;;3.30;;
7683;SDS011;3884;48.616;12.872;2024-02-21T08:44:28;7.37;;;3.90;;
7683;SDS011;3884;48.616;12.872;2024-02-21T08:46:55;5.03;;;3.43;;
7683;SDS011;3884;48.616;12.872;2024-02-21T08:49:22;6.43;;;4.00;;
7683;SDS011;3884;48.616;12.872;2024-02-21T08:51:52;5.97;;;3.07;;
7683;SDS011;3884;48.616;12.872;2024-02-21T08:54:19;6.63;;;2.93;;
7683;SDS011;3884;48.616;12.872;2024-02-21T08:56:46;5.00;;;3.40;;
7683;SDS011;3884;48.616;12.872;2024-02-21T08:59:13;5.30;;;3.47;;
7683;SDS011;3884;48.616;12.872;2024-02-21T09:01:41;5.83;;;3.57;;
7683;SDS011;3884;48.616;12.872;2024-02-21T09:04:08;8.27;;;3.43;;
7683;SDS011;3884;48.616;12.872;2024-02-21T09:06:35;4.43;;;2.80;;
7683;SDS011;3884;48.616;12.872;2024-02-21T09:09:04;6.40;;;3.20;;
7683;SDS011;3884;48.616;12.872;2024-02-21T09:11:33;3.67;;;2.73;;
7683;SDS011;3884;48.616;12.872;2024-02-21T09:14:00;6.67;;;3.07;;
7683;SDS011;3884;48.616;12.872;2024-02-21T09:16:29;4.47;;;2.87;;
7683;SDS011;3884;48.616;12.872;2024-02-21T09:18:58;4.90;;;2.30;;
7683;SDS011;3884;48.616;12.872;2024-02-21T09:21:25;7.10;;;3.93;;
7683;SDS011;3884;48.616;12.872;2024-02-21T09:23:53;8.17;;;2.93;;
7683;SDS011;3884;48.616;12.872;2024-02-21T09:26:20;6.00;;;3.70;;
7683;SDS011;3884;48.616;12.872;2024-02-21T09:28:47;4.47;;;2.80;;
7683;SDS011;3884;48.616;12.872;2024-02-21T09:31:14;6.40;;;3.40;;
7683;SDS011;3884;48.616;12.872;2024-02-21T09:33:40;6.23;;;3.00;;
7683;SDS011;3884;48.616;12.872;2024-02-21T09:36:10;5.33;;;2.80;;
7683;SDS011;3884;48.616;12.872;2024-02-21T09:38:39;5.53;;;2.70;;
7683;SDS011;3884;48.616;12.872;2024-02-21T09:41:09;5.23;;;2.43;;
7683;SDS011;3884;48.616;12.872;2024-02-21T09:43:41;4.73;;;3.30;;
7683;SDS011;3884;48.616;12.872;2024-02-21T09:46:12;5.90;;;2.90;;
7683;SDS011;3884;48.616;12.872;2024-02-21T09:48:45;4.00;;;2.80;;
7683;SDS011;3884;48.616;12.872;2024-02-21T09:51:32;4.13;;;2.50;;
7683;SDS011;3884;48.616;12.872;2024-02-21T09:54:00;6.17;;;2.73;;
7683;SDS011;3884;48.616;12.872;2024-02-21T09:56:28;7.57;;;2.97;;
7683;SDS011;3884;48.616;12.872;2024-02-21T09:58:55;6.80;;;2.70;;
7683;SDS011;3884;48.616;12.872;2024-02-21T10:01:23;5.33;;;2.67;;
7683;SDS011;3884;48.616;12.872;2024-02-21T10:03:50;5.23;;;2.40;;
7683;SDS011;3884;48.616;12.872;2024-02-21T10:06:17;6.60;;;2.40;;
7683;SDS011;3884;48.616;12.872;2024-02-21T10:08:52;6.50;;;2.73;;
7683;SDS011;3884;48.616;12.872;2024-02-21T10:11:22;5.60;;;2.50;;
7683;SDS011;3884;48.616;12.872;2024-02-21T10:13:49;5.43;;;2.43;;
7683;SDS011;3884;48.616;12.872;2024-02-21T10:16:16;5.73;;;2.40;;
7683;SDS011;3884;48.616;12.872;2024-02-21T10:18:43;8.97;;;2.70;;
7683;SDS011;3884;48.616;12.872;2024-02-21T10:21:10;4.50;;;2.50;;
7683;SDS011;3884;48.616;12.872;2024-02-21T10:23:40;4.67;;;2.30;;
7683;SDS011;3884;48.616;12.872;2024-02-21T10:26:09;22.20;;;4.57;;
7683;SDS011;3884;48.616;12.872;2024-02-21T10:28:36;9.60;;;3.80;;
7683;SDS011;3884;48.616;12.872;2024-02-21T10:31:07;4.00;;;2.50;;
7683;SDS011;3884;48.616;12.872;2024-02-21T10:33:35;6.47;;;2.40;;
7683;SDS011;3884;48.616;12.872;2024-02-21T10:36:06;5.43;;;2.33;;
7683;SDS011;3884;48.616;12.872;2024-02-21T10:38:34;4.87;;;2.30;;
7683;SDS011;3884;48.616;12.872;2024-02-21T10:41:02;5.00;;;2.20;;
7683;SDS011;3884;48.616;12.872;2024-02-21T10:43:32;4.60;;;2.40;;
7683;SDS011;3884;48.616;12.872;2024-02-21T10:46:04;6.43;;;2.70;;
7683;SDS011;3884;48.616;12.872;2024-02-21T10:48:33;4.47;;;2.37;;
7683;SDS011;3884;48.616;12.872;2024-02-21T10:51:10;3.93;;;2.50;;
7683;SDS011;3884;48.616;12.872;2024-02-21T10:53:44;5.63;;;2.43;;
7683;SDS011;3884;48.616;12.872;2024-02-21T10:56:20;5.53;;;2.37;;
7683;SDS011;3884;48.616;12.872;2024-02-21T10:58:53;5.77;;;2.20;;
7683;SDS011;3884;48.616;12.872;2024-02-21T11:01:22;6.27;;;2.20;;
7683;SDS011;3884;48.616;12.872;2024-02-21T11:03:52;4.40;;;2.43;;
7683;SDS011;3884;48.616;12.872;2024-02-21T11:06:20;4.10;;;2.33;;
7683;SDS011;3884;48.616;12.872;2024-02-21T11:08:58;4.43;;;2.30;;
7683;SDS011;3884;48.616;12.872;2024-02-21T11:11:27;4.07;;;2.00;;
7683;SDS011;3884;48.616;12.872;2024-02-21T11:14:04;4.87;;;2.03;;
7683;SDS011;3884;48.616;12.872;2024-02-21T11:16:35;4.83;;;2.13;;
7683;SDS011;3884;48.616;12.872;2024-02-21T11:19:04;7.60;;;2.20;;
7683;SDS011;3884;48.616;12.872;2024-02-21T11:21:33;6.20;;;2.40;;
7683;SDS011;3884;48.616;12.872;2024-02-21T11:24:01;5.87;;;2.10;;
7683;SDS011;3884;48.616;12.872;2024-02-21T11:26:28;7.03;;;2.53;;
7683;SDS011;3884;48.616;12.872;2024-02-21T11:28:57;4.80;;;2.13;;
7683;SDS011;3884;48.616;12.872;2024-02-21T11:31:39;5.83;;;2.40;;
7683;SDS011;3884;48.616;12.872;2024-02-21T11:34:08;4.03;;;1.97;;
7683;SDS011;3884;48.616;12.872;2024-02-21T11:36:36;3.73;;;1.90;;
7683;SDS011;3884;48.616;12.872;2024-02-21T11:39:12;4.00;;;1.90;;
7683;SDS011;3884;48.616;12.872;2024-02-21T11:42:01;4.27;;;2.10;;
7683;SDS011;3884;48.616;12.872;2024-02-21T11:44:29;5.03;;;2.50;;
7683;SDS011;3884;48.616;12.872;2024-02-21T11:47:01;3.93;;;2.23;;
7683;SDS011;3884;48.616;12.872;2024-02-21T11:49:30;3.20;;;2.10;;
7683;SDS011;3884;48.616;12.872;2024-02-21T11:51:57;5.50;;;2.20;;
7683;SDS011;3884;48.616;12.872;2024-02-21T11:54:25;4.10;;;2.37;;
7683;SDS011;3884;48.616;12.872;2024-02-21T11:56:53;3.43;;;2.10;;
7683;SDS011;3884;48.616;12.872;2024-02-21T11:59:21;4.90;;;2.37;;
7683;SDS011;3884;48.616;12.872;2024-02-21T12:01:55;4.67;;;1.83;;
7683;SDS011;3884;48.616;12.872;2024-02-21T12:04:26;3.80;;;2.17;;
7683;SDS011;3884;48.616;12.872;2024-02-21T12:06:53;3.17;;;1.90;;
7683;SDS011;3884;48.616;12.872;2024-02-21T12:09:22;5.03;;;2.20;;
7683;SDS011;3884;48.616;12.872;2024-02-21T12:11:57;2.53;;;1.90;;
7683;SDS011;3884;48.616;12.872;2024-02-21T12:14:27;3.03;;;2.00;;
7683;SDS011;3884;48.616;12.872;2024-02-21T12:16:55;4.53;;;1.90;;
7683;SDS011;3884;48.616;12.872;2024-02-21T12:19:40;4.07;;;1.60;;
7683;SDS011;3884;48.616;12.872;2024-02-21T12:22:07;3.27;;;1.87;;
7683;SDS011;3884;48.616;12.872;2024-02-21T12:24:34;4.80;;;2.00;;
7683;SDS011;3884;48.616;12.872;2024-02-21T12:27:06;2.97;;;1.77;;
7683;SDS011;3884;48.616;12.872;2024-02-21T12:29:38;4.33;;;1.83;;
7683;SDS011;3884;48.616;12.872;2024-02-21T12:32:07;3.53;;;1.80;;
7683;SDS011;3884;48.616;12.872;2024-02-21T12:34:34;3.60;;;1.80;;
7683;SDS011;3884;48.616;12.872;2024-02-21T12:37:03;4.47;;;2.07;;
7683;SDS011;3884;48.616;12.872;2024-02-21T12:39:30;2.90;;;2.00;;
7683;SDS011;3884;48.616;12.872;2024-02-21T12:41:59;4.63;;;1.83;;
7683;SDS011;3884;48.616;12.872;2024-02-21T12:44:28;3.40;;;1.83;;
7683;SDS011;3884;48.616;12.872;2024-02-21T12:46:59;3.07;;;1.90;;
7683;SDS011;3884;48.616;12.872;2024-02-21T12:49:27;2.30;;;1.60;;
7683;SDS011;3884;48.616;12.872;2024-02-21T12:51:58;3.97;;;1.90;;
7683;SDS011;3884;48.616;12.872;2024-02-21T12:54:26;3.53;;;2.20;;
7683;SDS011;3884;48.616;12.872;2024-02-21T12:56:55;2.53;;;1.60;;
7683;SDS011;3884;48.616;12.872;2024-02-21T12:59:23;3.50;;;1.67;;
7683;SDS011;3884;48.616;12.872;2024-02-21T13:01:51;3.77;;;1.80;;
7683;SDS011;3884;48.616;12.872;2024-02-21T13:04:21;3.83;;;1.87;;
7683;SDS011;3884;48.616;12.872;2024-02-21T13:06:49;3.23;;;1.70;;
7683;SDS011;3884;48.616;12.872;2024-02-21T13:09:16;2.70;;;1.40;;
7683;SDS011;3884;48.616;12.872;2024-02-21T13:11:53;4.87;;;2.57;;
7683;SDS011;3884;48.616;12.872;2024-02-21T13:14:33;9.23;;;5.57;;
7683;SDS011;3884;48.616;12.872;2024-02-21T13:17:05;10.43;;;6.60;;
7683;SDS011;3884;48.616;12.872;2024-02-21T13:19:40;5.00;;;2.37;;
7683;SDS011;3884;48.616;12.872;2024-02-21T13:22:07;3.73;;;1.80;;
7683;SDS011;3884;48.616;12.872;2024-02-21T13:24:34;3.20;;;1.90;;
7683;SDS011;3884;48.616;12.872;2024-02-21T13:27:05;3.47;;;1.97;;
7683;SDS011;3884;48.616;12.872;2024-02-21T13:29:34;3.20;;;1.60;;
7683;SDS011;3884;48.616;12.872;2024-02-21T13:32:01;3.97;;;2.00;;
7683;SDS011;3884;48.616;12.872;2024-02-21T13:34:29;4.20;;;2.73;;
7683;SDS011;3884;48.616;12.872;2024-02-21T13:36:57;10.60;;;6.87;;
7683;SDS011;3884;48.616;12.872;2024-02-21T13:39:25;4.13;;;2.33;;
7683;SDS011;3884;48.616;12.872;2024-02-21T13:41:53;3.07;;;1.80;;
7683;SDS011;3884;48.616;12.872;2024-02-21T13:44:21;4.80;;;2.40;;
7683;SDS011;3884;48.616;12.872;2024-02-21T13:46:48;3.23;;;2.07;;
7683;SDS011;3884;48.616;12.872;2024-02-21T13:49:15;3.47;;;2.03;;
7683;SDS011;3884;48.616;12.872;2024-02-21T13:51:44;4.63;;;2.00;;
7683;SDS011;3884;48.616;12.872;2024-02-21T13:54:11;2.77;;;1.87;;
7683;SDS011;3884;48.616;12.872;2024-02-21T13:56:41;2.27;;;1.90;;
7683;SDS011;3884;48.616;12.872;2024-02-21T13:59:08;3.13;;;1.70;;
7683;SDS011;3884;48.616;12.872;2024-02-21T14:01:42;3.27;;;1.90;;
7683;SDS011;3884;48.616;12.872;2024-02-21T14:04:12;1.90;;;1.67;;
7683;SDS011;3884;48.616;12.872;2024-02-21T14:06:43;5.47;;;2.17;;
7683;SDS011;3884;48.616;12.872;2024-02-21T14:09:10;8.07;;;2.70;;
7683;SDS011;3884;48.616;12.872;2024-02-21T14:11:38;5.67;;;1.93;;
7683;SDS011;3884;48.616;12.872;2024-02-21T14:14:05;3.77;;;1.87;;
7683;SDS011;3884;48.616;12.872;2024-02-21T14:16:32;2.70;;;1.90;;
7683;SDS011;3884;48.616;12.872;2024-02-21T14:19:01;4.37;;;2.07;;
7683;SDS011;3884;48.616;12.872;2024-02-21T14:21:35;3.13;;;1.97;;
7683;SDS011;3884;48.616;12.872;2024-02-21T14:24:03;4.37;;;2.20;;
7683;SDS011;3884;48.616;12.872;2024-02-21T14:26:30;2.93;;;1.87;;
7683;SDS011;3884;48.616;12.872;2024-02-21T14:28:59;3.00;;;1.80;;
7683;SDS011;3884;48.616;12.872;2024-02-21T14:31:29;2.93;;;1.70;;
7683;SDS011;3884;48.616;12.872;2024-02-21T14:37:08;4.17;;;1.67;;
7683;SDS011;3884;48.616;12.872;2024-02-21T14:39:35;4.50;;;1.83;;
7683;SDS011;3884;48.616;12.872;2024-02-21T14:42:02;3.73;;;1.70;;
7683;SDS011;3884;48.616;12.872;2024-02-21T14:44:29;3.60;;;1.77;;
7683;SDS011;3884;48.616;12.872;2024-02-21T14:46:55;2.03;;;1.70;;
7683;SDS011;3884;48.616;12.872;2024-02-21T14:49:22;2.27;;;1.50;;
7683;SDS011;3884;48.616;12.872;2024-02-21T14:51:52;2.77;;;1.53;;
7683;SDS011;3884;48.616;12.872;2024-02-21T14:54:19;2.47;;;1.77;;
7683;SDS011;3884;48.616;12.872;2024-02-21T14:56:46;3.23;;;1.80;;
7683;SDS011;3884;48.616;12.872;2024-02-21T14:59:13;3.90;;;2.00;;
7683;SDS011;3884;48.616;12.872;2024-02-21T15:01:42;2.73;;;1.47;;
7683;SDS011;3884;48.616;12.872;2024-02-21T15:04:10;3.27;;;1.50;;
7683;SDS011;3884;48.616;12.872;2024-02-21T15:06:37;3.47;;;1.90;;
7683;SDS011;3884;48.616;12.872;2024-02-21T15:09:08;2.70;;;1.70;;